sensor_id;sensor_type;location;lat;lon;timestamp;temperature;humidity
7143;DHT22;3613;48.902;9.204;2023-08-12T00:13:59;18.10;99.90
7143;DHT22;3613;48.902;9.204;2023-08-12T00:16:28;18.10;99.90
7143;DHT22;3613;48.902;9.204;2023-08-12T00:18:53;18.10;99.90
7143;DHT22;3613;48.902;9.204;2023-08-12T00:21:19;18.10;99.90
7143;DHT22;3613;48.902;9.204;2023-08-12T00:26:17;18.10;99.90
7143;DHT22;3613;48.902;9.204;2023-08-12T00:33:35;18.10;99.90
7143;DHT22;3613;48.902;9.204;2023-08-12T00:36:03;18.10;99.90
7143;DHT22;3613;48.902;9.204;2023-08-12T00:38:28;18.00;99.90
7143;DHT22;3613;48.902;9.204;2023-08-12T00:40:54;18.00;99.90
7143;DHT22;3613;48.902;9.204;2023-08-12T00:43:20;17.90;99.90
7143;DHT22;3613;48.902;9.204;2023-08-12T00:45:50;17.90;99.90
7143;DHT22;3613;48.902;9.204;2023-08-12T00:48:18;17.90;99.90
7143;DHT22;3613;48.902;9.204;2023-08-12T00:50:44;17.90;99.90
7143;DHT22;3613;48.902;9.204;2023-08-12T00:53:13;17.80;99.90
7143;DHT22;3613;48.902;9.204;2023-08-12T00:58:06;17.80;99.90
7143;DHT22;3613;48.902;9.204;2023-08-12T01:00:33;17.80;99.90
7143;DHT22;3613;48.902;9.204;2023-08-12T01:03:00;17.80;99.90
7143;DHT22;3613;48.902;9.204;2023-08-12T01:05:33;17.70;99.90
7143;DHT22;3613;48.902;9.204;2023-08-12T01:08:01;17.70;99.90
7143;DHT22;3613;48.902;9.204;2023-08-12T01:10:33;17.70;99.90
7143;DHT22;3613;48.902;9.204;2023-08-12T01:13:17;17.70;99.90
7143;DHT22;3613;48.902;9.204;2023-08-12T01:15:45;17.70;99.90
7143;DHT22;3613;48.902;9.204;2023-08-12T01:23:10;17.60;99.90
7143;DHT22;3613;48.902;9.204;2023-08-12T01:25:42;17.50;99.90
7143;DHT22;3613;48.902;9.204;2023-08-12T01:28:10;17.50;99.90
7143;DHT22;3613;48.902;9.204;2023-08-12T01:30:44;17.50;99.90
7143;DHT22;3613;48.902;9.204;2023-08-12T01:33:20;17.50;99.90
7143;DHT22;3613;48.902;9.204;2023-08-12T01:36:00;17.50;99.90
7143;DHT22;3613;48.902;9.204;2023-08-12T01:38:33;17.50;99.90
7143;DHT22;3613;48.902;9.204;2023-08-12T01:45:55;17.40;99.90
7143;DHT22;3613;48.902;9.204;2023-08-12T01:48:22;17.40;99.90
7143;DHT22;3613;48.902;9.204;2023-08-12T01:55:47;17.30;99.90
7143;DHT22;3613;48.902;9.204;2023-08-12T02:05:42;17.20;99.90
7143;DHT22;3613;48.902;9.204;2023-08-12T02:08:11;17.20;99.90
7143;DHT22;3613;48.902;9.204;2023-08-12T02:10:39;17.20;99.90
7143;DHT22;3613;48.902;9.204;2023-08-12T02:13:07;17.20;99.90
7143;DHT22;3613;48.902;9.204;2023-08-12T02:15:33;17.30;99.90
7143;DHT22;3613;48.902;9.204;2023-08-12T02:17:59;17.30;99.90
7143;DHT22;3613;48.902;9.204;2023-08-12T02:20:25;17.20;99.90
7143;DHT22;3613;48.902;9.204;2023-08-12T02:22:51;17.40;99.90
7143;DHT22;3613;48.902;9.204;2023-08-12T02:25:16;17.40;99.90
7143;DHT22;3613;48.902;9.204;2023-08-12T02:27:44;17.40;99.90
7143;DHT22;3613;48.902;9.204;2023-08-12T02:30:15;17.40;99.90
7143;DHT22;3613;48.902;9.204;2023-08-12T02:32:41;17.40;99.90
7143;DHT22;3613;48.902;9.204;2023-08-12T02:35:11;17.50;99.90
7143;DHT22;3613;48.902;9.204;2023-08-12T02:37:36;17.50;99.90
7143;DHT22;3613;48.902;9.204;2023-08-12T02:40:04;17.50;99.90
7143;DHT22;3613;48.902;9.204;2023-08-12T02:42:30;17.50;99.90
7143;DHT22;3613;48.902;9.204;2023-08-12T02:44:59;17.50;99.90
7143;DHT22;3613;48.902;9.204;2023-08-12T02:47:27;15.00;99.90
7143;DHT22;3613;48.902;9.204;2023-08-12T02:49:53;17.60;99.90
7143;DHT22;3613;48.902;9.204;2023-08-12T02:52:19;17.60;99.90
7143;DHT22;3613;48.902;9.204;2023-08-12T02:54:48;17.60;99.90
7143;DHT22;3613;48.902;9.204;2023-08-12T02:57:13;17.60;99.90
7143;DHT22;3613;48.902;9.204;2023-08-12T02:59:39;17.70;99.90
7143;DHT22;3613;48.902;9.204;2023-08-12T03:02:10;17.70;99.90
7143;DHT22;3613;48.902;9.204;2023-08-12T03:04:36;17.70;99.90
7143;DHT22;3613;48.902;9.204;2023-08-12T03:07:01;17.70;99.90
7143;DHT22;3613;48.902;9.204;2023-08-12T03:09:28;17.70;99.90
7143;DHT22;3613;48.902;9.204;2023-08-12T03:11:54;17.70;99.90
7143;DHT22;3613;48.902;9.204;2023-08-12T03:14:24;17.80;99.90
7143;DHT22;3613;48.902;9.204;2023-08-12T03:16:52;17.80;99.90
7143;DHT22;3613;48.902;9.204;2023-08-12T03:19:17;17.90;99.90
7143;DHT22;3613;48.902;9.204;2023-08-12T03:21:43;17.90;99.90
7143;DHT22;3613;48.902;9.204;2023-08-12T03:24:08;17.90;99.90
7143;DHT22;3613;48.902;9.204;2023-08-12T03:26:38;18.00;99.90
7143;DHT22;3613;48.902;9.204;2023-08-12T03:29:04;18.00;99.90
7143;DHT22;3613;48.902;9.204;2023-08-12T03:31:32;18.00;99.90
7143;DHT22;3613;48.902;9.204;2023-08-12T03:33:58;18.00;99.90
7143;DHT22;3613;48.902;9.204;2023-08-12T03:36:23;18.00;99.90
7143;DHT22;3613;48.902;9.204;2023-08-12T03:38:49;18.00;99.90
7143;DHT22;3613;48.902;9.204;2023-08-12T03:41:17;18.20;99.90
7143;DHT22;3613;48.902;9.204;2023-08-12T03:43:42;18.00;99.90
7143;DHT22;3613;48.902;9.204;2023-08-12T03:46:08;18.10;99.90
7143;DHT22;3613;48.902;9.204;2023-08-12T03:48:36;18.10;99.90
7143;DHT22;3613;48.902;9.204;2023-08-12T03:51:09;18.20;99.90
7143;DHT22;3613;48.902;9.204;2023-08-12T03:53:37;18.20;99.90
7143;DHT22;3613;48.902;9.204;2023-08-12T03:56:02;18.30;99.90
7143;DHT22;3613;48.902;9.204;2023-08-12T03:58:28;18.30;99.90
7143;DHT22;3613;48.902;9.204;2023-08-12T04:00:54;18.30;99.90
7143;DHT22;3613;48.902;9.204;2023-08-12T04:03:22;18.40;99.90
7143;DHT22;3613;48.902;9.204;2023-08-12T04:05:49;18.40;99.90
7143;DHT22;3613;48.902;9.204;2023-08-12T04:08:20;18.40;99.90
7143;DHT22;3613;48.902;9.204;2023-08-12T04:10:46;18.40;99.90
7143;DHT22;3613;48.902;9.204;2023-08-12T04:13:14;18.40;99.90
7143;DHT22;3613;48.902;9.204;2023-08-12T04:15:48;18.50;99.90
7143;DHT22;3613;48.902;9.204;2023-08-12T04:18:14;18.50;99.90
7143;DHT22;3613;48.902;9.204;2023-08-12T04:20:39;18.70;99.90
7143;DHT22;3613;48.902;9.204;2023-08-12T04:23:05;18.70;99.90
7143;DHT22;3613;48.902;9.204;2023-08-12T04:25:31;18.70;99.90
7143;DHT22;3613;48.902;9.204;2023-08-12T04:27:56;18.90;99.90
7143;DHT22;3613;48.902;9.204;2023-08-12T04:30:22;19.10;99.90
7143;DHT22;3613;48.902;9.204;2023-08-12T04:32:47;19.20;99.90
7143;DHT22;3613;48.902;9.204;2023-08-12T04:35:15;19.20;99.90
7143;DHT22;3613;48.902;9.204;2023-08-12T04:37:41;19.20;99.50
7143;DHT22;3613;48.902;9.204;2023-08-12T04:40:10;19.10;99.90
7143;DHT22;3613;48.902;9.204;2023-08-12T04:42:36;19.10;96.80
7143;DHT22;3613;48.902;9.204;2023-08-12T04:45:05;19.10;97.30
7143;DHT22;3613;48.902;9.204;2023-08-12T04:47:31;19.00;99.60
7143;DHT22;3613;48.902;9.204;2023-08-12T04:49:59;19.10;99.90
7143;DHT22;3613;48.902;9.204;2023-08-12T04:52:25;19.10;99.90
7143;DHT22;3613;48.902;9.204;2023-08-12T04:54:55;19.10;99.90
7143;DHT22;3613;48.902;9.204;2023-08-12T04:57:21;19.20;99.90
7143;DHT22;3613;48.902;9.204;2023-08-12T04:59:46;19.20;99.90
7143;DHT22;3613;48.902;9.204;2023-08-12T05:02:12;19.30;99.90
7143;DHT22;3613;48.902;9.204;2023-08-12T05:04:40;19.20;99.30
7143;DHT22;3613;48.902;9.204;2023-08-12T05:07:06;19.10;97.60
7143;DHT22;3613;48.902;9.204;2023-08-12T05:09:34;19.20;99.90
7143;DHT22;3613;48.902;9.204;2023-08-12T05:11:59;19.20;99.90
7143;DHT22;3613;48.902;9.204;2023-08-12T05:14:27;19.40;99.90
7143;DHT22;3613;48.902;9.204;2023-08-12T05:16:53;19.40;99.90
7143;DHT22;3613;48.902;9.204;2023-08-12T05:19:19;19.50;97.90
7143;DHT22;3613;48.902;9.204;2023-08-12T05:21:46;19.50;89.20
7143;DHT22;3613;48.902;9.204;2023-08-12T05:24:12;19.50;95.40
7143;DHT22;3613;48.902;9.204;2023-08-12T05:26:40;19.40;93.30
7143;DHT22;3613;48.902;9.204;2023-08-12T05:29:06;19.30;99.90
7143;DHT22;3613;48.902;9.204;2023-08-12T05:31:33;19.30;99.90
7143;DHT22;3613;48.902;9.204;2023-08-12T05:33:59;19.30;99.90
7143;DHT22;3613;48.902;9.204;2023-08-12T05:36:25;19.40;99.90
7143;DHT22;3613;48.902;9.204;2023-08-12T05:38:51;19.40;99.90
7143;DHT22;3613;48.902;9.204;2023-08-12T05:41:20;19.50;99.90
7143;DHT22;3613;48.902;9.204;2023-08-12T05:43:45;19.60;99.90
7143;DHT22;3613;48.902;9.204;2023-08-12T05:46:16;19.80;99.90
7143;DHT22;3613;48.902;9.204;2023-08-12T05:48:49;19.90;99.90
7143;DHT22;3613;48.902;9.204;2023-08-12T05:51:15;20.00;99.90
7143;DHT22;3613;48.902;9.204;2023-08-12T05:53:43;20.20;90.50
7143;DHT22;3613;48.902;9.204;2023-08-12T05:56:09;20.40;1.00
7143;DHT22;3613;48.902;9.204;2023-08-12T05:58:35;20.40;1.00
7143;DHT22;3613;48.902;9.204;2023-08-12T06:01:03;20.60;23.30
7143;DHT22;3613;48.902;9.204;2023-08-12T06:03:28;20.70;28.60
7143;DHT22;3613;48.902;9.204;2023-08-12T06:05:55;20.70;1.00
7143;DHT22;3613;48.902;9.204;2023-08-12T06:08:21;20.70;1.00
7143;DHT22;3613;48.902;9.204;2023-08-12T06:10:47;20.70;1.00
7143;DHT22;3613;48.902;9.204;2023-08-12T06:13:14;20.60;1.00
7143;DHT22;3613;48.902;9.204;2023-08-12T06:15:45;20.70;8.80
7143;DHT22;3613;48.902;9.204;2023-08-12T06:18:11;20.70;92.20
7143;DHT22;3613;48.902;9.204;2023-08-12T06:20:37;20.80;79.70
7143;DHT22;3613;48.902;9.204;2023-08-12T06:23:04;20.70;54.50
7143;DHT22;3613;48.902;9.204;2023-08-12T06:25:30;20.70;67.40
7143;DHT22;3613;48.902;9.204;2023-08-12T06:27:58;20.60;92.00
7143;DHT22;3613;48.902;9.204;2023-08-12T06:30:24;20.40;77.40
7143;DHT22;3613;48.902;9.204;2023-08-12T06:32:49;20.40;99.90
7143;DHT22;3613;48.902;9.204;2023-08-12T06:35:16;20.40;96.40
7143;DHT22;3613;48.902;9.204;2023-08-12T06:37:44;20.40;99.90
7143;DHT22;3613;48.902;9.204;2023-08-12T06:40:13;20.40;79.20
7143;DHT22;3613;48.902;9.204;2023-08-12T06:42:40;20.20;99.90
7143;DHT22;3613;48.902;9.204;2023-08-12T06:45:06;21.00;99.90
7143;DHT22;3613;48.902;9.204;2023-08-12T06:47:35;21.30;90.80
7143;DHT22;3613;48.902;9.204;2023-08-12T06:50:02;21.50;1.00
7143;DHT22;3613;48.902;9.204;2023-08-12T06:52:37;21.80;1.00
7143;DHT22;3613;48.902;9.204;2023-08-12T06:55:03;22.10;1.00
7143;DHT22;3613;48.902;9.204;2023-08-12T06:57:29;22.10;1.00
7143;DHT22;3613;48.902;9.204;2023-08-12T07:00:02;22.40;1.00
7143;DHT22;3613;48.902;9.204;2023-08-12T07:02:30;22.70;1.00
7143;DHT22;3613;48.902;9.204;2023-08-12T07:04:58;23.00;1.00
7143;DHT22;3613;48.902;9.204;2023-08-12T07:07:24;23.30;1.00
7143;DHT22;3613;48.902;9.204;2023-08-12T07:09:49;23.60;1.00
7143;DHT22;3613;48.902;9.204;2023-08-12T07:12:17;24.00;1.00
7143;DHT22;3613;48.902;9.204;2023-08-12T07:14:43;24.60;1.00
7143;DHT22;3613;48.902;9.204;2023-08-12T07:17:08;25.00;1.00
7143;DHT22;3613;48.902;9.204;2023-08-12T07:19:34;26.40;99.90
7143;DHT22;3613;48.902;9.204;2023-08-12T07:22:05;28.70;1.00
7143;DHT22;3613;48.902;9.204;2023-08-12T07:24:30;31.00;99.90
7143;DHT22;3613;48.902;9.204;2023-08-12T07:26:56;32.70;99.90
7143;DHT22;3613;48.902;9.204;2023-08-12T07:29:22;33.70;99.90
7143;DHT22;3613;48.902;9.204;2023-08-12T07:31:49;33.90;99.90
7143;DHT22;3613;48.902;9.204;2023-08-12T07:34:17;33.00;99.90
7143;DHT22;3613;48.902;9.204;2023-08-12T07:36:48;32.50;99.90
7143;DHT22;3613;48.902;9.204;2023-08-12T07:39:18;32.60;99.90
7143;DHT22;3613;48.902;9.204;2023-08-12T07:41:47;33.40;99.90
7143;DHT22;3613;48.902;9.204;2023-08-12T07:44:15;34.00;99.90
7143;DHT22;3613;48.902;9.204;2023-08-12T07:46:40;35.40;99.90
7143;DHT22;3613;48.902;9.204;2023-08-12T07:49:07;36.70;99.90
7143;DHT22;3613;48.902;9.204;2023-08-12T07:51:33;36.60;99.90
7143;DHT22;3613;48.902;9.204;2023-08-12T07:53:58;36.00;99.90
7143;DHT22;3613;48.902;9.204;2023-08-12T07:56:24;35.80;99.90
7143;DHT22;3613;48.902;9.204;2023-08-12T07:58:54;34.70;99.90
7143;DHT22;3613;48.902;9.204;2023-08-12T08:01:20;35.10;99.90
7143;DHT22;3613;48.902;9.204;2023-08-12T08:03:48;35.70;99.90
7143;DHT22;3613;48.902;9.204;2023-08-12T08:06:13;36.70;99.90
7143;DHT22;3613;48.902;9.204;2023-08-12T08:08:39;37.40;99.90
7143;DHT22;3613;48.902;9.204;2023-08-12T08:11:07;37.50;99.90
7143;DHT22;3613;48.902;9.204;2023-08-12T08:13:42;37.00;99.90
7143;DHT22;3613;48.902;9.204;2023-08-12T08:16:08;36.40;99.90
7143;DHT22;3613;48.902;9.204;2023-08-12T08:18:33;36.40;99.90
7143;DHT22;3613;48.902;9.204;2023-08-12T08:20:59;36.80;99.90
7143;DHT22;3613;48.902;9.204;2023-08-12T08:23:27;37.30;99.90
7143;DHT22;3613;48.902;9.204;2023-08-12T08:25:57;37.70;99.90
7143;DHT22;3613;48.902;9.204;2023-08-12T08:28:23;37.50;99.90
7143;DHT22;3613;48.902;9.204;2023-08-12T08:30:51;36.30;99.90
7143;DHT22;3613;48.902;9.204;2023-08-12T08:33:16;35.40;99.90
7143;DHT22;3613;48.902;9.204;2023-08-12T08:35:42;35.10;99.90
7143;DHT22;3613;48.902;9.204;2023-08-12T08:38:10;35.30;99.90
7143;DHT22;3613;48.902;9.204;2023-08-12T08:40:38;34.80;99.90
7143;DHT22;3613;48.902;9.204;2023-08-12T08:43:07;34.20;99.90
7143;DHT22;3613;48.902;9.204;2023-08-12T08:45:33;34.20;99.90
7143;DHT22;3613;48.902;9.204;2023-08-12T08:48:00;35.40;99.90
7143;DHT22;3613;48.902;9.204;2023-08-12T08:50:30;35.80;99.90
7143;DHT22;3613;48.902;9.204;2023-08-12T08:52:56;35.80;99.90
7143;DHT22;3613;48.902;9.204;2023-08-12T08:55:24;36.20;99.90
7143;DHT22;3613;48.902;9.204;2023-08-12T08:57:53;36.70;99.90
7143;DHT22;3613;48.902;9.204;2023-08-12T09:00:19;37.30;99.90
7143;DHT22;3613;48.902;9.204;2023-08-12T09:02:49;37.00;99.90
7143;DHT22;3613;48.902;9.204;2023-08-12T09:05:18;37.10;99.90
7143;DHT22;3613;48.902;9.204;2023-08-12T09:07:46;37.20;99.90
7143;DHT22;3613;48.902;9.204;2023-08-12T09:10:13;37.30;99.90
7143;DHT22;3613;48.902;9.204;2023-08-12T09:12:43;37.00;99.90
7143;DHT22;3613;48.902;9.204;2023-08-12T09:15:12;36.40;99.90
7143;DHT22;3613;48.902;9.204;2023-08-12T09:17:38;36.20;99.90
7143;DHT22;3613;48.902;9.204;2023-08-12T09:20:05;35.30;99.90
7143;DHT22;3613;48.902;9.204;2023-08-12T09:22:37;34.30;99.90
7143;DHT22;3613;48.902;9.204;2023-08-12T09:25:11;34.10;99.90
7143;DHT22;3613;48.902;9.204;2023-08-12T09:27:37;35.20;99.90
7143;DHT22;3613;48.902;9.204;2023-08-12T09:30:04;36.00;99.90
7143;DHT22;3613;48.902;9.204;2023-08-12T09:32:30;36.90;99.90
7143;DHT22;3613;48.902;9.204;2023-08-12T09:34:58;37.80;99.90
7143;DHT22;3613;48.902;9.204;2023-08-12T09:37:27;38.20;99.90
7143;DHT22;3613;48.902;9.204;2023-08-12T09:39:53;38.00;99.90
7143;DHT22;3613;48.902;9.204;2023-08-12T09:42:19;37.80;99.90
7143;DHT22;3613;48.902;9.204;2023-08-12T09:44:52;37.70;99.90
7143;DHT22;3613;48.902;9.204;2023-08-12T09:47:20;37.70;99.90
7143;DHT22;3613;48.902;9.204;2023-08-12T09:49:50;37.70;99.90
7143;DHT22;3613;48.902;9.204;2023-08-12T09:52:15;37.70;99.90
7143;DHT22;3613;48.902;9.204;2023-08-12T09:54:48;38.10;99.90
7143;DHT22;3613;48.902;9.204;2023-08-12T09:57:17;38.40;99.90
7143;DHT22;3613;48.902;9.204;2023-08-12T09:59:47;38.70;99.90
7143;DHT22;3613;48.902;9.204;2023-08-12T10:02:15;37.50;99.90
7143;DHT22;3613;48.902;9.204;2023-08-12T10:04:45;36.70;99.90
7143;DHT22;3613;48.902;9.204;2023-08-12T10:07:11;35.80;99.90
7143;DHT22;3613;48.902;9.204;2023-08-12T10:09:40;35.20;99.90
7143;DHT22;3613;48.902;9.204;2023-08-12T10:12:11;34.20;99.90
7143;DHT22;3613;48.902;9.204;2023-08-12T10:14:42;33.60;99.90
7143;DHT22;3613;48.902;9.204;2023-08-12T10:17:11;33.30;99.90
7143;DHT22;3613;48.902;9.204;2023-08-12T10:19:44;33.00;99.90
7143;DHT22;3613;48.902;9.204;2023-08-12T10:22:12;32.70;99.90
7143;DHT22;3613;48.902;9.204;2023-08-12T10:24:42;32.60;99.90
7143;DHT22;3613;48.902;9.204;2023-08-12T10:27:08;32.60;99.90
7143;DHT22;3613;48.902;9.204;2023-08-12T10:29:38;32.80;99.90
7143;DHT22;3613;48.902;9.204;2023-08-12T10:32:04;32.90;99.90
7143;DHT22;3613;48.902;9.204;2023-08-12T10:37:00;31.20;99.90
7143;DHT22;3613;48.902;9.204;2023-08-12T10:39:30;32.70;99.90
7143;DHT22;3613;48.902;9.204;2023-08-12T10:41:56;32.50;99.90
7143;DHT22;3613;48.902;9.204;2023-08-12T10:44:39;32.40;99.90
7143;DHT22;3613;48.902;9.204;2023-08-12T10:47:13;33.20;99.90
7143;DHT22;3613;48.902;9.204;2023-08-12T10:49:42;34.10;99.90
7143;DHT22;3613;48.902;9.204;2023-08-12T10:52:36;35.10;99.90
7143;DHT22;3613;48.902;9.204;2023-08-12T10:55:31;35.80;99.90
7143;DHT22;3613;48.902;9.204;2023-08-12T10:58:15;35.90;99.90
7143;DHT22;3613;48.902;9.204;2023-08-12T11:00:57;35.60;99.90
7143;DHT22;3613;48.902;9.204;2023-08-12T11:03:23;35.00;99.90
7143;DHT22;3613;48.902;9.204;2023-08-12T11:05:49;34.40;99.90
7143;DHT22;3613;48.902;9.204;2023-08-12T11:08:24;34.30;99.90
7143;DHT22;3613;48.902;9.204;2023-08-12T11:10:52;34.40;99.90
7143;DHT22;3613;48.902;9.204;2023-08-12T11:15:47;35.20;99.90
7143;DHT22;3613;48.902;9.204;2023-08-12T11:18:17;36.10;99.90
7143;DHT22;3613;48.902;9.204;2023-08-12T11:20:48;36.10;99.90
7143;DHT22;3613;48.902;9.204;2023-08-12T11:23:14;36.50;99.90
7143;DHT22;3613;48.902;9.204;2023-08-12T11:25:42;37.20;99.90
7143;DHT22;3613;48.902;9.204;2023-08-12T11:28:08;37.70;99.90
7143;DHT22;3613;48.902;9.204;2023-08-12T11:30:39;38.30;99.90
7143;DHT22;3613;48.902;9.204;2023-08-12T11:33:16;38.70;99.90
7143;DHT22;3613;48.902;9.204;2023-08-12T11:35:48;39.00;99.90
7143;DHT22;3613;48.902;9.204;2023-08-12T11:38:18;38.80;99.90
7143;DHT22;3613;48.902;9.204;2023-08-12T11:40:45;38.70;99.90
7143;DHT22;3613;48.902;9.204;2023-08-12T11:43:11;38.50;99.90
7143;DHT22;3613;48.902;9.204;2023-08-12T11:45:40;38.00;99.90
7143;DHT22;3613;48.902;9.204;2023-08-12T11:48:06;37.20;99.90
7143;DHT22;3613;48.902;9.204;2023-08-12T11:50:35;36.10;99.90
7143;DHT22;3613;48.902;9.204;2023-08-12T11:57:57;31.80;99.90
7143;DHT22;3613;48.902;9.204;2023-08-12T12:00:25;28.20;1.00
7143;DHT22;3613;48.902;9.204;2023-08-12T12:02:51;24.30;99.90
7143;DHT22;3613;48.902;9.204;2023-08-12T12:05:37;21.90;1.00
7143;DHT22;3613;48.902;9.204;2023-08-12T12:10:34;20.80;99.90
7143;DHT22;3613;48.902;9.204;2023-08-12T12:13:02;20.40;99.90
7143;DHT22;3613;48.902;9.204;2023-08-12T12:25:25;20.50;99.90
7143;DHT22;3613;48.902;9.204;2023-08-12T12:27:54;20.40;99.90
7143;DHT22;3613;48.902;9.204;2023-08-12T12:30:19;20.30;99.90
7143;DHT22;3613;48.902;9.204;2023-08-12T12:42:39;20.80;99.90
7143;DHT22;3613;48.902;9.204;2023-08-12T12:45:08;21.00;99.90
7143;DHT22;3613;48.902;9.204;2023-08-12T12:52:35;21.30;99.90
7143;DHT22;3613;48.902;9.204;2023-08-12T12:55:01;21.30;99.90
7143;DHT22;3613;48.902;9.204;2023-08-12T12:57:29;21.50;99.90
7143;DHT22;3613;48.902;9.204;2023-08-12T13:02:21;22.00;99.90
7143;DHT22;3613;48.902;9.204;2023-08-12T13:04:51;22.20;99.90
7143;DHT22;3613;48.902;9.204;2023-08-12T13:07:19;22.10;99.90
7143;DHT22;3613;48.902;9.204;2023-08-12T13:12:10;21.80;99.90
7143;DHT22;3613;48.902;9.204;2023-08-12T13:24:27;21.60;99.90
7143;DHT22;3613;48.902;9.204;2023-08-12T13:44:02;21.70;99.90
7143;DHT22;3613;48.902;9.204;2023-08-12T13:48:57;22.00;99.90
7143;DHT22;3613;48.902;9.204;2023-08-12T13:51:22;22.20;99.90
7143;DHT22;3613;48.902;9.204;2023-08-12T13:53:52;22.70;99.90
7143;DHT22;3613;48.902;9.204;2023-08-12T13:56:18;23.00;99.90
7143;DHT22;3613;48.902;9.204;2023-08-12T14:03:39;24.10;99.90
7143;DHT22;3613;48.902;9.204;2023-08-12T14:08:33;24.40;1.00
7143;DHT22;3613;48.902;9.204;2023-08-12T14:11:01;24.60;1.00
7143;DHT22;3613;48.902;9.204;2023-08-12T14:16:14;24.90;1.00
7143;DHT22;3613;48.902;9.204;2023-08-12T14:26:04;25.70;1.00
7143;DHT22;3613;48.902;9.204;2023-08-12T14:28:30;25.70;1.00
7143;DHT22;3613;48.902;9.204;2023-08-12T14:30:55;25.90;1.00
7143;DHT22;3613;48.902;9.204;2023-08-12T14:35:51;25.80;1.00
7143;DHT22;3613;48.902;9.204;2023-08-12T14:40:48;25.90;1.00
7143;DHT22;3613;48.902;9.204;2023-08-12T14:43:21;26.00;1.00
7143;DHT22;3613;48.902;9.204;2023-08-12T14:50:46;25.90;1.00
7143;DHT22;3613;48.902;9.204;2023-08-12T14:55:37;25.80;1.00
7143;DHT22;3613;48.902;9.204;2023-08-12T14:58:05;26.00;1.00
7143;DHT22;3613;48.902;9.204;2023-08-12T15:00:40;26.10;1.00
7143;DHT22;3613;48.902;9.204;2023-08-12T15:03:09;26.20;1.00
7143;DHT22;3613;48.902;9.204;2023-08-12T15:05:38;26.10;1.00
7143;DHT22;3613;48.902;9.204;2023-08-12T15:10:30;26.00;1.00
7143;DHT22;3613;48.902;9.204;2023-08-12T15:12:56;25.80;1.00
7143;DHT22;3613;48.902;9.204;2023-08-12T15:17:52;25.60;1.00
7143;DHT22;3613;48.902;9.204;2023-08-12T15:20:19;25.40;1.00
7143;DHT22;3613;48.902;9.204;2023-08-12T15:25:11;25.00;1.00
7143;DHT22;3613;48.902;9.204;2023-08-12T15:27:39;24.90;1.00
7143;DHT22;3613;48.902;9.204;2023-08-12T15:30:09;24.70;1.00
7143;DHT22;3613;48.902;9.204;2023-08-12T15:32:36;24.60;1.00
7143;DHT22;3613;48.902;9.204;2023-08-12T15:35:02;24.60;1.00
7143;DHT22;3613;48.902;9.204;2023-08-12T15:39:56;24.40;1.00
7143;DHT22;3613;48.902;9.204;2023-08-12T15:42:22;24.40;1.00
7143;DHT22;3613;48.902;9.204;2023-08-12T15:47:13;24.40;1.00
7143;DHT22;3613;48.902;9.204;2023-08-12T15:59:34;24.20;1.00
7143;DHT22;3613;48.902;9.204;2023-08-12T16:02:00;24.20;37.40
7143;DHT22;3613;48.902;9.204;2023-08-12T16:11:48;23.30;99.90
7143;DHT22;3613;48.902;9.204;2023-08-12T16:16:40;23.00;99.90
7143;DHT22;3613;48.902;9.204;2023-08-12T16:19:05;22.80;99.90
7143;DHT22;3613;48.902;9.204;2023-08-12T16:23:57;22.40;99.90
7143;DHT22;3613;48.902;9.204;2023-08-12T16:26:28;22.40;99.90
7143;DHT22;3613;48.902;9.204;2023-08-12T16:28:56;22.30;99.90
7143;DHT22;3613;48.902;9.204;2023-08-12T16:33:50;22.10;99.90
7143;DHT22;3613;48.902;9.204;2023-08-12T16:41:10;22.10;99.90
7143;DHT22;3613;48.902;9.204;2023-08-12T16:46:03;22.00;99.90
7143;DHT22;3613;48.902;9.204;2023-08-12T16:50:55;21.90;99.90
7143;DHT22;3613;48.902;9.204;2023-08-12T17:00:53;21.80;99.90
7143;DHT22;3613;48.902;9.204;2023-08-12T17:05:45;21.70;99.90
7143;DHT22;3613;48.902;9.204;2023-08-12T17:08:11;21.70;99.90
7143;DHT22;3613;48.902;9.204;2023-08-12T17:10:40;21.70;99.90
7143;DHT22;3613;48.902;9.204;2023-08-12T17:15:33;21.90;99.90
7143;DHT22;3613;48.902;9.204;2023-08-12T17:22:55;22.30;99.90
7143;DHT22;3613;48.902;9.204;2023-08-12T17:27:50;22.40;99.90
7143;DHT22;3613;48.902;9.204;2023-08-12T17:35:13;22.50;99.90
7143;DHT22;3613;48.902;9.204;2023-08-12T17:37:41;22.60;99.90
7143;DHT22;3613;48.902;9.204;2023-08-12T17:40:07;22.60;99.90
7143;DHT22;3613;48.902;9.204;2023-08-12T17:42:37;22.60;99.90
7143;DHT22;3613;48.902;9.204;2023-08-12T17:45:03;22.50;99.90
7143;DHT22;3613;48.902;9.204;2023-08-12T17:49:57;22.40;99.90
7143;DHT22;3613;48.902;9.204;2023-08-12T17:54:54;22.30;99.90
7143;DHT22;3613;48.902;9.204;2023-08-12T17:57:22;22.10;99.90
7143;DHT22;3613;48.902;9.204;2023-08-12T17:59:50;22.10;99.90
7143;DHT22;3613;48.902;9.204;2023-08-12T18:07:08;22.00;99.90
7143;DHT22;3613;48.902;9.204;2023-08-12T18:11:59;22.00;99.90
7143;DHT22;3613;48.902;9.204;2023-08-12T18:16:59;21.90;99.90
7143;DHT22;3613;48.902;9.204;2023-08-12T18:19:25;21.80;99.90
7143;DHT22;3613;48.902;9.204;2023-08-12T18:24:16;21.70;99.90
7143;DHT22;3613;48.902;9.204;2023-08-12T18:31:36;21.50;99.90
7143;DHT22;3613;48.902;9.204;2023-08-12T18:34:05;21.40;99.90
7143;DHT22;3613;48.902;9.204;2023-08-12T18:38:57;21.30;99.90
7143;DHT22;3613;48.902;9.204;2023-08-12T18:41:26;21.30;99.90
7143;DHT22;3613;48.902;9.204;2023-08-12T18:43:54;21.10;99.90
7143;DHT22;3613;48.902;9.204;2023-08-12T18:46:20;21.10;99.90
7143;DHT22;3613;48.902;9.204;2023-08-12T18:53:40;21.00;99.90
7143;DHT22;3613;48.902;9.204;2023-08-12T19:01:00;21.00;99.90
7143;DHT22;3613;48.902;9.204;2023-08-12T19:03:30;21.10;99.90
7143;DHT22;3613;48.902;9.204;2023-08-12T19:06:01;21.00;99.90
7143;DHT22;3613;48.902;9.204;2023-08-12T19:08:30;21.10;99.90
7143;DHT22;3613;48.902;9.204;2023-08-12T19:10:59;21.00;99.90
7143;DHT22;3613;48.902;9.204;2023-08-12T19:13:29;21.00;99.90
7143;DHT22;3613;48.902;9.204;2023-08-12T19:15:55;20.90;99.90
7143;DHT22;3613;48.902;9.204;2023-08-12T19:18:24;20.90;99.90
7143;DHT22;3613;48.902;9.204;2023-08-12T19:33:19;20.90;99.90
7143;DHT22;3613;48.902;9.204;2023-08-12T19:38:16;20.80;99.90
7143;DHT22;3613;48.902;9.204;2023-08-12T19:43:08;20.80;99.90
7143;DHT22;3613;48.902;9.204;2023-08-12T20:05:17;20.50;99.90
7143;DHT22;3613;48.902;9.204;2023-08-12T20:07:47;22.20;99.90
7143;DHT22;3613;48.902;9.204;2023-08-12T20:10:17;20.50;99.90
7143;DHT22;3613;48.902;9.204;2023-08-12T20:12:46;20.50;99.90
7143;DHT22;3613;48.902;9.204;2023-08-12T20:15:16;20.40;99.90
7143;DHT22;3613;48.902;9.204;2023-08-12T20:17:43;20.50;99.90
7143;DHT22;3613;48.902;9.204;2023-08-12T20:20:10;20.50;99.90
7143;DHT22;3613;48.902;9.204;2023-08-12T20:22:43;20.50;99.90
7143;DHT22;3613;48.902;9.204;2023-08-12T20:25:11;20.50;99.90
7143;DHT22;3613;48.902;9.204;2023-08-12T20:27:39;20.60;99.90
7143;DHT22;3613;48.902;9.204;2023-08-12T20:30:05;20.60;99.90
7143;DHT22;3613;48.902;9.204;2023-08-12T20:32:36;20.60;99.90
7143;DHT22;3613;48.902;9.204;2023-08-12T20:37:33;20.60;99.90
7143;DHT22;3613;48.902;9.204;2023-08-12T20:40:02;20.60;99.90
7143;DHT22;3613;48.902;9.204;2023-08-12T20:45:00;20.70;99.90
7143;DHT22;3613;48.902;9.204;2023-08-12T20:47:30;20.70;99.90
7143;DHT22;3613;48.902;9.204;2023-08-12T20:59:48;20.50;99.90
7143;DHT22;3613;48.902;9.204;2023-08-12T21:04:42;20.60;99.90
7143;DHT22;3613;48.902;9.204;2023-08-12T21:09:37;20.70;99.90
7143;DHT22;3613;48.902;9.204;2023-08-12T21:12:03;20.70;99.90
7143;DHT22;3613;48.902;9.204;2023-08-12T21:14:29;20.70;99.90
7143;DHT22;3613;48.902;9.204;2023-08-12T21:21:53;20.60;99.90